createdAt,value
2022-09-13T00:02:11.079Z,3.80
2022-09-13T00:04:34.682Z,3.60
2022-09-13T00:06:59.545Z,3.28
2022-09-13T00:09:23.052Z,3.53
2022-09-13T00:11:46.568Z,3.90
2022-09-13T00:14:10.500Z,3.47
2022-09-13T00:16:34.158Z,3.28
2022-09-13T00:19:01.813Z,3.70
2022-09-13T00:21:26.174Z,3.08
2022-09-13T00:23:53.070Z,3.38
2022-09-13T00:26:19.886Z,3.30
2022-09-13T00:28:45.489Z,3.38
2022-09-13T00:31:11.013Z,3.63
2022-09-13T00:33:34.564Z,3.03
2022-09-13T00:35:58.756Z,3.38
2022-09-13T00:38:22.337Z,3.33
2022-09-13T00:40:47.571Z,4.20
2022-09-13T00:43:18.406Z,3.10
2022-09-13T00:45:42.126Z,3.60
2022-09-13T00:48:08.330Z,3.80
2022-09-13T00:50:36.515Z,3.22
2022-09-13T00:53:07.117Z,3.80
2022-09-13T00:55:38.902Z,3.75
2022-09-13T00:58:10.282Z,4.03
2022-09-13T01:00:34.118Z,3.33
2022-09-13T01:03:00.726Z,3.65
2022-09-13T01:05:29.409Z,3.72
2022-09-13T01:07:53.328Z,3.30
2022-09-13T01:10:16.977Z,3.35
2022-09-13T01:12:50.300Z,3.58
2022-09-13T01:15:15.185Z,3.25
2022-09-13T01:17:40.204Z,3.33
2022-09-13T01:20:06.802Z,3.53
2022-09-13T01:23:09.253Z,3.30
2022-09-13T01:26:23.603Z,3.55
2022-09-13T01:29:35.156Z,3.83
2022-09-13T01:32:13.503Z,3.30
2022-09-13T01:34:51.368Z,3.63
2022-09-13T01:37:38.148Z,3.72
2022-09-13T01:40:17.364Z,3.50
2022-09-13T01:42:57.961Z,3.53
2022-09-13T01:45:38.996Z,2.80
2022-09-13T01:48:12.213Z,3.25
2022-09-13T01:50:41.843Z,3.40
2022-09-13T01:53:13.484Z,3.15
2022-09-13T01:55:44.315Z,3.65
2022-09-13T01:58:21.401Z,3.13
2022-09-13T02:00:51.263Z,4.03
2022-09-13T02:03:20.223Z,3.30
2022-09-13T02:05:51.709Z,3.15
2022-09-13T02:08:20.766Z,3.47
2022-09-13T02:10:48.590Z,3.20
2022-09-13T02:13:17.146Z,3.45
2022-09-13T02:15:45.749Z,3.30
2022-09-13T02:18:13.357Z,3.00
2022-09-13T02:20:45.289Z,3.53
2022-09-13T02:23:15.298Z,3.10
2022-09-13T02:25:41.489Z,3.00
2022-09-13T02:28:11.301Z,3.45
2022-09-13T02:30:40.329Z,3.25
2022-09-13T02:33:09.770Z,3.38
2022-09-13T02:35:40.307Z,3.13
2022-09-13T02:38:07.438Z,3.08
2022-09-13T02:40:40.205Z,3.13
2022-09-13T02:43:10.179Z,3.10
2022-09-13T02:45:47.961Z,3.03
2022-09-13T02:48:20.389Z,3.50
2022-09-13T02:50:59.295Z,3.28
2022-09-13T02:53:31.496Z,3.67
2022-09-13T02:56:06.373Z,3.30
2022-09-13T02:58:39.076Z,3.15
2022-09-13T03:01:03.189Z,3.20
2022-09-13T03:03:26.811Z,3.08
2022-09-13T03:05:51.668Z,3.00
2022-09-13T03:08:18.503Z,3.10
2022-09-13T03:10:55.747Z,3.35
2022-09-13T03:14:09.741Z,3.10
2022-09-13T03:17:03.881Z,3.75
2022-09-13T03:19:46.317Z,3.30
2022-09-13T03:22:39.629Z,3.40
2022-09-13T03:25:09.705Z,3.90
2022-09-13T03:27:39.977Z,3.70
2022-09-13T03:30:07.210Z,3.30
2022-09-13T03:32:42.795Z,3.63
2022-09-13T03:35:18.109Z,3.42
2022-09-13T03:37:58.579Z,3.70
2022-09-13T03:40:30.163Z,3.83
2022-09-13T03:43:00.271Z,3.60
2022-09-13T03:45:30.117Z,3.67
2022-09-13T03:47:54.489Z,3.80
2022-09-13T03:50:21.657Z,3.88
2022-09-13T03:52:48.665Z,4.00
2022-09-13T03:55:12.436Z,3.60
2022-09-13T03:57:35.839Z,3.83
2022-09-13T04:00:00.226Z,3.83
2022-09-13T04:02:26.643Z,3.53
2022-09-13T04:04:50.976Z,3.83
2022-09-13T04:07:16.742Z,3.88
2022-09-13T04:09:41.671Z,4.13
2022-09-13T04:12:05.749Z,3.63
2022-09-13T04:14:29.266Z,3.85
2022-09-13T04:16:52.979Z,4.30
2022-09-13T04:19:17.020Z,3.85
2022-09-13T04:21:40.486Z,3.88
2022-09-13T04:24:04.494Z,3.67
2022-09-13T04:26:29.330Z,4.05
2022-09-13T04:28:55.002Z,4.03
2022-09-13T04:31:18.451Z,4.03
2022-09-13T04:33:42.275Z,3.55
2022-09-13T04:36:06.131Z,3.63
2022-09-13T04:38:31.954Z,4.18
2022-09-13T04:40:56.523Z,3.53
2022-09-13T04:43:21.433Z,3.88
2022-09-13T04:45:44.877Z,3.75
2022-09-13T04:48:09.022Z,4.47
2022-09-13T04:50:32.534Z,3.60
2022-09-13T04:52:56.873Z,3.72
2022-09-13T04:55:20.293Z,3.90
2022-09-13T04:57:43.795Z,3.53
2022-09-13T05:00:11.292Z,3.75
2022-09-13T05:02:34.839Z,4.03
2022-09-13T05:04:58.460Z,4.18
2022-09-13T05:07:22.425Z,3.95
2022-09-13T05:09:45.887Z,3.85
2022-09-13T05:12:09.665Z,3.58
2022-09-13T05:14:33.153Z,3.70
2022-09-13T05:16:58.003Z,3.72
2022-09-13T05:19:21.513Z,4.03
2022-09-13T05:21:44.924Z,3.88
2022-09-13T05:24:09.590Z,3.90
2022-09-13T05:26:33.654Z,4.22
2022-09-13T05:28:57.134Z,3.92
2022-09-13T05:31:24.706Z,3.92
2022-09-13T05:33:56.388Z,3.88
2022-09-13T05:36:19.877Z,4.07
2022-09-13T05:38:43.416Z,4.00
2022-09-13T05:41:07.611Z,4.00
2022-09-13T05:43:33.662Z,3.83
2022-09-13T05:46:03.597Z,3.88
2022-09-13T05:48:27.034Z,4.20
2022-09-13T05:50:58.236Z,4.10
2022-09-13T05:53:22.130Z,3.83
2022-09-13T05:55:45.634Z,3.92
2022-09-13T05:58:09.181Z,4.28
2022-09-13T06:00:33.151Z,4.90
2022-09-13T06:02:58.320Z,4.38
2022-09-13T06:05:21.851Z,3.90
2022-09-13T06:07:46.786Z,4.03
2022-09-13T06:10:13.467Z,4.20
2022-09-13T06:12:37.422Z,4.38
2022-09-13T06:15:00.907Z,4.38
2022-09-13T06:17:24.347Z,4.00
2022-09-13T06:19:47.954Z,4.53
2022-09-13T06:22:11.475Z,4.40
2022-09-13T06:24:37.528Z,4.13
2022-09-13T06:27:00.973Z,4.00
2022-09-13T06:29:24.501Z,4.40
2022-09-13T06:31:48.024Z,4.40
2022-09-13T06:34:14.063Z,4.32
2022-09-13T06:36:37.569Z,4.35
2022-09-13T06:39:02.164Z,4.15
2022-09-13T06:41:27.367Z,4.40
2022-09-13T06:43:54.823Z,4.00
2022-09-13T06:46:24.620Z,4.22
2022-09-13T06:48:49.789Z,4.60
2022-09-13T06:51:15.828Z,4.40
2022-09-13T06:53:43.533Z,4.10
2022-09-13T06:56:09.998Z,4.60
2022-09-13T06:58:36.414Z,4.20
2022-09-13T07:01:14.974Z,4.70
2022-09-13T07:03:39.910Z,4.28
2022-09-13T07:06:10.335Z,4.30
2022-09-13T07:08:34.547Z,4.43
2022-09-13T07:10:59.126Z,4.30
2022-09-13T07:13:22.555Z,4.72
2022-09-13T07:15:47.391Z,4.53
2022-09-13T07:18:10.833Z,4.35
2022-09-13T07:20:34.870Z,4.47
2022-09-13T07:22:58.363Z,4.70
2022-09-13T07:25:21.897Z,4.88
2022-09-13T07:27:45.324Z,3.90
2022-09-13T07:30:10.074Z,3.97
2022-09-13T07:32:35.692Z,4.05
2022-09-13T07:34:59.222Z,4.68
2022-09-13T07:37:22.884Z,4.70
2022-09-13T07:39:46.579Z,4.68
2022-09-13T07:42:10.176Z,4.20
2022-09-13T07:44:33.632Z,4.88
2022-09-13T07:46:57.118Z,4.63
2022-09-13T07:49:22.030Z,4.50
2022-09-13T07:51:46.562Z,5.03
2022-09-13T07:54:14.451Z,4.53
2022-09-13T07:56:40.692Z,3.90
2022-09-13T07:59:06.042Z,4.38
2022-09-13T08:01:32.011Z,4.10
2022-09-13T08:03:58.010Z,3.88
2022-09-13T08:06:23.629Z,4.00
2022-09-13T08:08:47.287Z,4.18
2022-09-13T08:11:19.183Z,4.45
2022-09-13T08:13:42.742Z,4.80
2022-09-13T08:16:07.932Z,4.57
2022-09-13T08:18:31.553Z,4.40
2022-09-13T08:20:58.875Z,4.57
2022-09-13T08:23:24.148Z,4.72
2022-09-13T08:25:47.587Z,4.80
2022-09-13T08:28:15.858Z,4.45
2022-09-13T08:30:39.622Z,4.50
2022-09-13T08:33:03.367Z,5.47
2022-09-13T08:35:26.984Z,4.90
2022-09-13T08:37:50.459Z,5.57
2022-09-13T08:40:15.516Z,6.28
2022-09-13T08:42:52.756Z,5.97
2022-09-13T08:45:17.105Z,5.80
2022-09-13T08:47:44.730Z,5.80
2022-09-13T08:50:17.447Z,5.40
2022-09-13T08:53:14.110Z,5.32
2022-09-13T08:55:54.606Z,6.47
2022-09-13T08:58:35.114Z,6.32
2022-09-13T09:01:08.994Z,6.38
2022-09-13T09:03:43.925Z,6.63
2022-09-13T09:06:15.280Z,7.40
2022-09-13T09:08:46.846Z,6.53
2022-09-13T09:11:22.639Z,6.05
2022-09-13T09:13:54.108Z,6.63
2022-09-13T09:16:34.946Z,6.50
2022-09-13T09:19:18.366Z,7.00
2022-09-13T09:21:43.500Z,8.50
2022-09-13T09:24:08.142Z,7.40
2022-09-13T09:26:33.117Z,7.75
2022-09-13T09:29:00.234Z,8.40
2022-09-13T09:31:35.741Z,7.72
2022-09-13T09:34:13.858Z,8.65
2022-09-13T09:36:43.642Z,8.27
2022-09-13T09:39:08.795Z,7.88
2022-09-13T09:41:35.770Z,8.32
2022-09-13T09:44:15.557Z,7.72
2022-09-13T09:46:42.233Z,7.45
2022-09-13T09:49:42.253Z,8.68
2022-09-13T09:52:11.354Z,8.93
2022-09-13T09:54:38.234Z,7.43
2022-09-13T09:57:03.463Z,8.20
2022-09-13T09:59:32.589Z,7.38
2022-09-13T10:01:58.113Z,5.30
2022-09-13T10:04:23.902Z,5.75
2022-09-13T10:06:47.781Z,5.50
2022-09-13T10:09:19.407Z,4.88
2022-09-13T10:11:47.110Z,5.10
2022-09-13T10:14:38.628Z,5.55
2022-09-13T10:17:25.794Z,5.43
2022-09-13T10:19:59.688Z,5.50
2022-09-13T10:22:23.624Z,6.00
2022-09-13T10:24:48.306Z,5.60
2022-09-13T10:27:28.622Z,5.68
2022-09-13T10:29:59.619Z,5.57
2022-09-13T10:32:23.712Z,4.40
2022-09-13T10:34:47.955Z,5.03
2022-09-13T10:37:19.391Z,5.53
2022-09-13T10:39:57.564Z,4.60
2022-09-13T10:42:24.548Z,4.40
2022-09-13T10:44:56.967Z,3.80
2022-09-13T10:47:25.128Z,3.75
2022-09-13T10:49:52.926Z,3.90
2022-09-13T10:52:35.016Z,4.30
2022-09-13T10:55:31.730Z,4.38
2022-09-13T10:57:57.207Z,3.20
2022-09-13T11:00:24.585Z,2.65
2022-09-13T11:03:16.126Z,3.92
2022-09-13T11:05:44.482Z,3.85
2022-09-13T11:08:29.561Z,4.47
2022-09-13T11:11:10.773Z,3.92
2022-09-13T11:13:52.634Z,4.03
2022-09-13T11:16:36.369Z,4.10
2022-09-13T11:19:21.576Z,4.13
2022-09-13T11:21:59.589Z,3.53
2022-09-13T11:24:47.718Z,3.33
2022-09-13T11:27:23.163Z,3.58
2022-09-13T11:30:07.278Z,3.70
2022-09-13T11:32:58.687Z,4.00
2022-09-13T11:35:39.499Z,4.00
2022-09-13T11:38:19.459Z,3.63
2022-09-13T11:40:53.282Z,3.97
2022-09-13T11:43:48.448Z,3.95
2022-09-13T11:46:24.797Z,4.70
2022-09-13T11:49:23.561Z,4.40
2022-09-13T11:51:59.854Z,5.10
2022-09-13T11:54:51.058Z,4.22
2022-09-13T11:57:20.152Z,4.70
2022-09-13T11:59:50.322Z,5.78
2022-09-13T12:02:24.542Z,3.88
2022-09-13T12:05:20.553Z,3.40
2022-09-13T12:07:46.637Z,3.50
2022-09-13T12:10:20.109Z,4.35
2022-09-13T12:12:45.761Z,4.18
2022-09-13T12:15:17.497Z,4.53
2022-09-13T12:17:44.956Z,5.10
2022-09-13T12:20:19.863Z,4.57
2022-09-13T12:22:44.621Z,5.10
2022-09-13T12:25:21.642Z,4.53
2022-09-13T12:27:53.306Z,3.58
2022-09-13T12:30:19.297Z,3.92
2022-09-13T12:32:45.634Z,4.75
2022-09-13T12:35:20.906Z,4.78
2022-09-13T12:38:07.414Z,4.50
2022-09-13T12:40:59.472Z,4.75
2022-09-13T12:43:44.505Z,4.30
2022-09-13T12:46:40.269Z,2.90
2022-09-13T12:49:39.406Z,4.90
2022-09-13T12:52:23.534Z,5.20
2022-09-13T12:55:46.597Z,6.53
2022-09-13T12:58:31.511Z,5.50
2022-09-13T13:01:10.932Z,5.65
2022-09-13T13:03:38.477Z,5.40
2022-09-13T13:06:12.228Z,4.47
2022-09-13T13:08:37.466Z,4.65
2022-09-13T13:11:08.107Z,4.72
2022-09-13T13:13:37.952Z,4.78
2022-09-13T13:16:23.868Z,4.70
2022-09-13T13:18:49.573Z,4.20
2022-09-13T13:21:34.449Z,3.95
2022-09-13T13:24:48.819Z,3.90
2022-09-13T13:27:48.599Z,4.03
2022-09-13T13:30:56.457Z,4.20
2022-09-13T13:33:25.948Z,4.50
2022-09-13T13:35:50.018Z,5.38
2022-09-13T13:38:42.150Z,5.90
2022-09-13T13:41:44.976Z,5.55
2022-09-13T13:45:20.972Z,4.57
2022-09-13T13:48:12.329Z,5.47
2022-09-13T13:50:39.116Z,5.32
2022-09-13T13:53:24.694Z,5.15
2022-09-13T13:55:50.664Z,5.68
2022-09-13T13:58:43.307Z,7.68
2022-09-13T14:01:07.890Z,6.45
2022-09-13T14:03:52.754Z,7.07
2022-09-13T14:06:25.990Z,7.72
2022-09-13T14:09:04.893Z,7.20
2022-09-13T14:11:47.607Z,6.28
2022-09-13T14:14:34.820Z,7.47
2022-09-13T14:17:37.961Z,6.00
2022-09-13T14:20:06.535Z,7.13
2022-09-13T14:22:31.106Z,7.20
2022-09-13T14:24:56.485Z,11.93
2022-09-13T14:27:24.690Z,6.63
2022-09-13T14:29:52.468Z,6.82
2022-09-13T14:32:22.651Z,6.28
2022-09-13T14:34:58.935Z,6.40
2022-09-13T14:37:28.529Z,6.43
2022-09-13T14:39:57.457Z,7.32
2022-09-13T14:42:20.980Z,7.70
2022-09-13T14:44:46.445Z,7.07
2022-09-13T14:47:21.097Z,7.28
2022-09-13T14:49:51.947Z,8.10
2022-09-13T14:52:23.197Z,8.05
2022-09-13T14:54:52.824Z,6.53
2022-09-13T14:57:28.778Z,7.70
2022-09-13T14:59:58.151Z,7.43
2022-09-13T15:02:26.748Z,8.50
2022-09-13T15:04:53.327Z,8.90
2022-09-13T15:07:24.358Z,9.43
2022-09-13T15:09:48.158Z,8.38
2022-09-13T15:12:26.044Z,8.23
2022-09-13T15:14:49.715Z,8.40
2022-09-13T15:17:15.111Z,8.30
2022-09-13T15:19:43.700Z,7.75
2022-09-13T15:22:20.149Z,9.45
2022-09-13T15:24:50.007Z,8.45
2022-09-13T15:27:27.404Z,8.55
2022-09-13T15:29:56.753Z,7.60
2022-09-13T15:32:31.488Z,9.63
2022-09-13T15:35:00.064Z,8.25
2022-09-13T15:37:33.027Z,7.70
2022-09-13T15:40:15.352Z,7.07
2022-09-13T15:42:38.928Z,7.03
2022-09-13T15:45:02.295Z,7.22
2022-09-13T15:47:25.952Z,7.22
2022-09-13T15:49:51.658Z,6.03
2022-09-13T15:52:17.601Z,5.68
2022-09-13T15:54:43.498Z,6.47
2022-09-13T15:57:10.281Z,6.53
2022-09-13T15:59:33.776Z,6.68
2022-09-13T16:01:57.342Z,6.10
2022-09-13T16:04:21.165Z,5.55
2022-09-13T16:06:44.986Z,5.88
2022-09-13T16:09:20.213Z,6.93
2022-09-13T16:11:43.791Z,5.03
2022-09-13T16:14:07.207Z,5.13
2022-09-13T16:16:31.080Z,6.15
2022-09-13T16:19:04.535Z,5.18
2022-09-13T16:21:29.663Z,7.93
2022-09-13T16:23:53.114Z,6.93
2022-09-13T16:26:18.093Z,6.95
2022-09-13T16:28:41.631Z,8.32
2022-09-13T16:31:05.359Z,5.85
2022-09-13T16:33:31.348Z,8.15
2022-09-13T16:35:57.937Z,9.35
2022-09-13T16:38:23.809Z,8.95
2022-09-13T16:40:47.756Z,9.15
2022-09-13T16:43:13.793Z,8.38
2022-09-13T16:45:40.754Z,7.85
2022-09-13T16:48:04.532Z,7.45
2022-09-13T16:50:30.984Z,7.10
2022-09-13T16:52:57.006Z,8.20
2022-09-13T16:55:21.694Z,8.07
2022-09-13T16:57:48.236Z,8.50
2022-09-13T17:00:15.661Z,7.97
2022-09-13T17:02:40.185Z,6.63
2022-09-13T17:05:08.691Z,6.55
2022-09-13T17:07:33.450Z,8.48
2022-09-13T17:09:57.456Z,7.35
2022-09-13T17:12:21.039Z,7.35
2022-09-13T17:14:47.357Z,8.30
2022-09-13T17:17:13.679Z,7.13
2022-09-13T17:19:37.380Z,7.95
2022-09-13T17:22:02.583Z,6.97
2022-09-13T17:24:49.951Z,7.30
2022-09-13T17:27:16.065Z,7.30
2022-09-13T17:29:39.660Z,7.18
2022-09-13T17:32:05.812Z,7.07
2022-09-13T17:34:32.479Z,7.05
2022-09-13T17:36:57.124Z,6.97
2022-09-13T17:39:21.054Z,7.35
2022-09-13T17:41:44.592Z,7.70
2022-09-13T17:44:08.225Z,7.38
2022-09-13T17:46:32.276Z,7.53
2022-09-13T17:48:57.316Z,7.03
2022-09-13T17:51:24.849Z,6.72
2022-09-13T17:53:51.190Z,7.60
2022-09-13T17:56:19.011Z,7.18
2022-09-13T17:58:42.640Z,6.95
2022-09-13T18:01:08.399Z,6.80
2022-09-13T18:03:32.741Z,6.35
2022-09-13T18:05:58.170Z,6.20
2022-09-13T18:08:23.538Z,6.40
2022-09-13T18:11:10.172Z,6.00
2022-09-13T18:13:30.749Z,6.55
2022-09-13T18:16:02.421Z,6.10
2022-09-13T18:18:26.054Z,5.80
2022-09-13T18:20:49.608Z,6.65
2022-09-13T18:23:13.444Z,6.95
2022-09-13T18:25:38.553Z,5.88
2022-09-13T18:28:02.171Z,6.85
2022-09-13T18:30:25.709Z,5.95
2022-09-13T18:32:49.260Z,5.15
2022-09-13T18:35:12.731Z,5.97
2022-09-13T18:37:36.385Z,6.55
2022-09-13T18:40:00.050Z,5.43
2022-09-13T18:42:24.955Z,4.70
2022-09-13T18:44:48.457Z,4.97
2022-09-13T18:47:12.979Z,4.60
2022-09-13T18:49:36.338Z,5.00
2022-09-13T18:51:59.919Z,4.80
2022-09-13T18:54:23.342Z,5.03
2022-09-13T18:56:47.728Z,4.65
2022-09-13T18:59:15.052Z,4.35
2022-09-13T19:01:42.120Z,5.03
2022-09-13T19:04:08.532Z,4.93
2022-09-13T19:06:34.129Z,5.20
2022-09-13T19:08:59.138Z,4.93
2022-09-13T19:11:45.208Z,5.55
2022-09-13T19:14:11.114Z,4.82
2022-09-13T19:16:35.254Z,5.40
2022-09-13T19:18:58.774Z,5.68
2022-09-13T19:21:25.037Z,5.63
2022-09-13T19:23:59.730Z,5.65
2022-09-13T19:26:28.469Z,6.00
2022-09-13T19:28:55.040Z,6.05
2022-09-13T19:31:22.596Z,5.93
2022-09-13T19:33:46.391Z,6.30
2022-09-13T19:36:14.897Z,6.15
2022-09-13T19:38:38.805Z,6.28
2022-09-13T19:41:07.304Z,6.95
2022-09-13T19:43:33.797Z,5.85
2022-09-13T19:45:58.785Z,5.93
2022-09-13T19:48:38.298Z,7.60
2022-09-13T19:51:05.495Z,6.80
2022-09-13T19:53:55.580Z,5.78
2022-09-13T19:56:14.988Z,6.63
2022-09-13T19:58:39.284Z,4.40
2022-09-13T20:01:06.633Z,3.60
2022-09-13T20:03:32.865Z,3.67
2022-09-13T20:06:00.611Z,3.58
2022-09-13T20:08:25.194Z,3.30
2022-09-13T20:10:48.775Z,2.80
2022-09-13T20:13:12.677Z,3.03
2022-09-13T20:15:36.378Z,3.20
2022-09-13T20:18:00.090Z,3.25
2022-09-13T20:20:25.724Z,2.47
2022-09-13T20:22:49.157Z,2.60
2022-09-13T20:25:12.799Z,2.75
2022-09-13T20:27:38.710Z,3.00
2022-09-13T20:30:02.220Z,3.25
2022-09-13T20:32:25.968Z,3.10
2022-09-13T20:34:50.011Z,2.65
2022-09-13T20:37:14.957Z,2.83
2022-09-13T20:39:38.413Z,2.13
2022-09-13T20:42:05.380Z,2.28
2022-09-13T20:44:28.827Z,1.90
2022-09-13T20:46:52.289Z,1.90
2022-09-13T20:49:16.748Z,2.33
2022-09-13T20:51:40.421Z,2.33
2022-09-13T20:54:06.136Z,2.55
2022-09-13T20:56:33.874Z,2.22
2022-09-13T20:59:00.443Z,2.67
2022-09-13T21:01:24.805Z,2.92
2022-09-13T21:03:51.081Z,2.30
2022-09-13T21:06:14.944Z,2.65
2022-09-13T21:08:43.680Z,2.15
2022-09-13T21:11:12.685Z,2.10
2022-09-13T21:13:37.762Z,2.20
2022-09-13T21:16:04.911Z,1.75
2022-09-13T21:18:30.498Z,1.63
2022-09-13T21:20:57.611Z,1.92
2022-09-13T21:23:21.295Z,1.40
2022-09-13T21:25:44.910Z,1.55
2022-09-13T21:28:10.908Z,2.05
2022-09-13T21:30:35.187Z,1.58
2022-09-13T21:32:58.751Z,1.40
2022-09-13T21:35:22.251Z,1.48
2022-09-13T21:37:45.812Z,1.55
2022-09-13T21:40:10.832Z,1.60
2022-09-13T21:42:35.537Z,1.60
2022-09-13T21:45:01.112Z,1.65
2022-09-13T21:47:24.687Z,1.70
2022-09-13T21:49:48.133Z,1.60
2022-09-13T21:52:12.249Z,1.90
2022-09-13T21:54:35.692Z,1.85
2022-09-13T21:56:59.138Z,1.67
2022-09-13T21:59:26.013Z,1.75
2022-09-13T22:01:52.465Z,1.67
2022-09-13T22:04:19.199Z,2.05
2022-09-13T22:06:42.762Z,1.80
2022-09-13T22:09:10.670Z,1.90
2022-09-13T22:11:39.207Z,1.70
2022-09-13T22:14:03.138Z,2.00
2022-09-13T22:16:31.087Z,1.63
2022-09-13T22:18:58.107Z,1.70
2022-09-13T22:21:25.203Z,1.98
2022-09-13T22:23:49.671Z,2.00
2022-09-13T22:26:15.957Z,1.77
2022-09-13T22:28:39.496Z,2.08
2022-09-13T22:31:08.374Z,1.80
2022-09-13T22:33:31.913Z,1.80
2022-09-13T22:36:09.466Z,1.75
2022-09-13T22:38:35.096Z,1.98
2022-09-13T22:41:00.971Z,2.20
2022-09-13T22:43:25.117Z,1.85
2022-09-13T22:45:48.629Z,2.33
2022-09-13T22:48:12.624Z,2.30
2022-09-13T22:50:36.094Z,2.47
2022-09-13T22:53:01.112Z,2.15
2022-09-13T22:55:24.705Z,2.60
2022-09-13T22:57:48.181Z,1.95
2022-09-13T23:00:14.057Z,2.22
2022-09-13T23:02:37.648Z,2.20
2022-09-13T23:05:01.100Z,2.05
2022-09-13T23:07:24.590Z,2.65
2022-09-13T23:09:49.687Z,1.88
2022-09-13T23:12:13.209Z,2.30
2022-09-13T23:14:36.784Z,2.10
2022-09-13T23:17:00.529Z,2.10
2022-09-13T23:19:25.747Z,2.15
2022-09-13T23:21:49.400Z,1.65
2022-09-13T23:24:16.740Z,2.15
2022-09-13T23:26:41.914Z,2.00
2022-09-13T23:29:06.373Z,1.73
2022-09-13T23:31:32.755Z,2.03
2022-09-13T23:33:59.681Z,1.70
2022-09-13T23:36:26.359Z,2.45
2022-09-13T23:38:55.354Z,2.10
2022-09-13T23:41:19.180Z,1.65
2022-09-13T23:43:44.331Z,1.75
2022-09-13T23:46:14.998Z,2.40
2022-09-13T23:48:39.915Z,2.22
2022-09-13T23:51:05.940Z,2.05
2022-09-13T23:53:30.069Z,2.45
2022-09-13T23:55:53.581Z,2.72
2022-09-13T23:58:17.273Z,2.75
